CheckWX is a tool to help pilots better visualize weather data.  It is not intended as a substitute for an official pre-flight weather briefing.

01:54:18 UTC

LFPB TAF
Paris-Le Bourget Airport
Paris, France
TAF LFPB 182300Z 1900/1924 VRB03KT 9999 SCT040 PROB40 1902/1908 3000 BR PROB30 TEMPO 1905/1907 0800 BCFG

Mar-19@
00:00 UTC

Mar-19 @ 00:00 UTC

Mar-20@
00:00 UTC

Mar-20 @ 00:00 UTC

TAF LFPB 182300Z 1900/1924 VRB03KT 9999 SCT040
Wind
  • Variable at 3 KTS
Cloud Levels
  • Scattered at 4,000' AGL

Mar-19@
02:00 UTC

Mar-19 @ 02:00 UTC

Mar-19@
08:00 UTC

Mar-19 @ 08:00 UTC

PROB40 1902/1908 3000 BR

Probable - 40% Likelihood

Probable - 40% Likelihood during this time.

Conditions
Mist

Mar-19@
05:00 UTC

Mar-19 @ 05:00 UTC

Mar-19@
07:00 UTC

Mar-19 @ 07:00 UTC

PROB30 TEMPO 1905/1907 0800 BCFG

Temporary - 30% Likelihood

Temporary - 30% Likelihood during this time.

Conditions
Patches of Fog